sensor_id;sensor_type;location;lat;lon;timestamp;P1;durP1;ratioP1;P2;durP2;ratioP2
27303;SDS011;14791;52.392;13.092;2024-02-26T00:02:10;4.27;;;4.07;;
27303;SDS011;14791;52.392;13.092;2024-02-26T00:04:39;3.80;;;3.50;;
27303;SDS011;14791;52.392;13.092;2024-02-26T00:07:08;3.40;;;3.30;;
27303;SDS011;14791;52.392;13.092;2024-02-26T00:09:37;5.80;;;5.40;;
27303;SDS011;14791;52.392;13.092;2024-02-26T00:12:06;4.27;;;4.07;;
27303;SDS011;14791;52.392;13.092;2024-02-26T00:14:35;3.57;;;3.43;;
27303;SDS011;14791;52.392;13.092;2024-02-26T00:17:04;3.60;;;3.40;;
27303;SDS011;14791;52.392;13.092;2024-02-26T00:19:34;3.33;;;3.03;;
27303;SDS011;14791;52.392;13.092;2024-02-26T00:22:03;4.87;;;3.60;;
27303;SDS011;14791;52.392;13.092;2024-02-26T00:24:32;3.60;;;3.40;;
27303;SDS011;14791;52.392;13.092;2024-02-26T00:27:01;3.87;;;3.27;;
27303;SDS011;14791;52.392;13.092;2024-02-26T00:29:30;5.20;;;4.27;;
27303;SDS011;14791;52.392;13.092;2024-02-26T00:31:59;3.30;;;3.20;;
27303;SDS011;14791;52.392;13.092;2024-02-26T00:34:28;4.50;;;4.10;;
27303;SDS011;14791;52.392;13.092;2024-02-26T00:36:57;3.10;;;3.00;;
27303;SDS011;14791;52.392;13.092;2024-02-26T00:39:26;3.53;;;3.23;;
27303;SDS011;14791;52.392;13.092;2024-02-26T00:41:55;3.40;;;3.30;;
27303;SDS011;14791;52.392;13.092;2024-02-26T00:44:24;5.90;;;4.07;;
27303;SDS011;14791;52.392;13.092;2024-02-26T00:46:53;3.67;;;3.37;;
27303;SDS011;14791;52.392;13.092;2024-02-26T00:49:22;4.60;;;3.53;;
27303;SDS011;14791;52.392;13.092;2024-02-26T00:51:51;4.80;;;3.70;;
27303;SDS011;14791;52.392;13.092;2024-02-26T00:54:19;3.60;;;3.40;;
27303;SDS011;14791;52.392;13.092;2024-02-26T00:56:48;4.13;;;3.80;;
27303;SDS011;14791;52.392;13.092;2024-02-26T00:59:17;4.47;;;4.03;;
27303;SDS011;14791;52.392;13.092;2024-02-26T01:01:46;3.13;;;2.97;;
27303;SDS011;14791;52.392;13.092;2024-02-26T01:04:15;4.57;;;3.47;;
27303;SDS011;14791;52.392;13.092;2024-02-26T01:06:44;4.33;;;3.77;;
27303;SDS011;14791;52.392;13.092;2024-02-26T01:09:12;3.27;;;3.07;;
27303;SDS011;14791;52.392;13.092;2024-02-26T01:11:41;3.20;;;3.00;;
27303;SDS011;14791;52.392;13.092;2024-02-26T01:14:10;3.10;;;2.90;;
27303;SDS011;14791;52.392;13.092;2024-02-26T01:16:39;3.07;;;2.87;;
27303;SDS011;14791;52.392;13.092;2024-02-26T01:19:08;3.33;;;3.00;;
27303;SDS011;14791;52.392;13.092;2024-02-26T01:21:37;2.97;;;2.70;;
27303;SDS011;14791;52.392;13.092;2024-02-26T01:24:06;2.80;;;2.57;;
27303;SDS011;14791;52.392;13.092;2024-02-26T01:26:34;2.93;;;2.83;;
27303;SDS011;14791;52.392;13.092;2024-02-26T01:29:03;2.63;;;2.53;;
27303;SDS011;14791;52.392;13.092;2024-02-26T01:31:32;2.83;;;2.60;;
27303;SDS011;14791;52.392;13.092;2024-02-26T01:34:01;3.03;;;2.80;;
27303;SDS011;14791;52.392;13.092;2024-02-26T01:36:30;2.50;;;2.40;;
27303;SDS011;14791;52.392;13.092;2024-02-26T01:38:59;3.17;;;2.87;;
27303;SDS011;14791;52.392;13.092;2024-02-26T01:41:29;3.33;;;3.03;;
27303;SDS011;14791;52.392;13.092;2024-02-26T01:43:59;3.67;;;3.10;;
27303;SDS011;14791;52.392;13.092;2024-02-26T01:46:27;3.20;;;3.00;;
27303;SDS011;14791;52.392;13.092;2024-02-26T01:48:58;3.57;;;3.27;;
27303;SDS011;14791;52.392;13.092;2024-02-26T01:51:29;3.10;;;3.00;;
27303;SDS011;14791;52.392;13.092;2024-02-26T01:54:00;3.07;;;2.97;;
27303;SDS011;14791;52.392;13.092;2024-02-26T01:56:31;3.43;;;3.17;;
27303;SDS011;14791;52.392;13.092;2024-02-26T01:59:00;3.77;;;3.50;;
27303;SDS011;14791;52.392;13.092;2024-02-26T02:01:31;2.73;;;2.60;;
27303;SDS011;14791;52.392;13.092;2024-02-26T02:04:02;2.70;;;2.60;;
27303;SDS011;14791;52.392;13.092;2024-02-26T02:06:31;3.00;;;2.90;;
27303;SDS011;14791;52.392;13.092;2024-02-26T02:09:00;3.07;;;2.80;;
27303;SDS011;14791;52.392;13.092;2024-02-26T02:11:31;4.87;;;3.20;;
27303;SDS011;14791;52.392;13.092;2024-02-26T02:14:01;3.07;;;2.87;;
27303;SDS011;14791;52.392;13.092;2024-02-26T02:16:30;3.27;;;3.07;;
27303;SDS011;14791;52.392;13.092;2024-02-26T02:18:59;3.63;;;3.43;;
27303;SDS011;14791;52.392;13.092;2024-02-26T02:21:28;3.83;;;3.63;;
27303;SDS011;14791;52.392;13.092;2024-02-26T02:23:57;3.53;;;3.33;;
27303;SDS011;14791;52.392;13.092;2024-02-26T02:26:26;3.83;;;3.63;;
27303;SDS011;14791;52.392;13.092;2024-02-26T02:28:55;3.27;;;3.07;;
27303;SDS011;14791;52.392;13.092;2024-02-26T02:31:25;2.90;;;2.70;;
27303;SDS011;14791;52.392;13.092;2024-02-26T02:33:54;4.50;;;3.10;;
27303;SDS011;14791;52.392;13.092;2024-02-26T02:36:23;2.90;;;2.73;;
27303;SDS011;14791;52.392;13.092;2024-02-26T02:38:52;3.03;;;2.93;;
27303;SDS011;14791;52.392;13.092;2024-02-26T02:41:21;3.40;;;3.13;;
27303;SDS011;14791;52.392;13.092;2024-02-26T02:43:50;3.30;;;3.20;;
27303;SDS011;14791;52.392;13.092;2024-02-26T02:46:18;3.30;;;3.10;;
27303;SDS011;14791;52.392;13.092;2024-02-26T02:48:47;3.30;;;3.10;;
27303;SDS011;14791;52.392;13.092;2024-02-26T02:51:17;3.57;;;3.37;;
27303;SDS011;14791;52.392;13.092;2024-02-26T02:53:46;3.40;;;3.17;;
27303;SDS011;14791;52.392;13.092;2024-02-26T02:56:14;3.33;;;3.23;;
27303;SDS011;14791;52.392;13.092;2024-02-26T02:58:43;3.50;;;3.30;;
27303;SDS011;14791;52.392;13.092;2024-02-26T03:01:13;3.87;;;3.67;;
27303;SDS011;14791;52.392;13.092;2024-02-26T03:03:42;3.50;;;3.20;;
27303;SDS011;14791;52.392;13.092;2024-02-26T03:06:11;3.37;;;3.07;;
27303;SDS011;14791;52.392;13.092;2024-02-26T03:08:39;3.33;;;3.13;;
27303;SDS011;14791;52.392;13.092;2024-02-26T03:11:12;3.77;;;3.47;;
27303;SDS011;14791;52.392;13.092;2024-02-26T03:13:46;3.50;;;3.40;;
27303;SDS011;14791;52.392;13.092;2024-02-26T03:16:16;4.03;;;3.50;;
27303;SDS011;14791;52.392;13.092;2024-02-26T03:18:45;3.40;;;3.20;;
27303;SDS011;14791;52.392;13.092;2024-02-26T03:21:14;3.53;;;3.33;;
27303;SDS011;14791;52.392;13.092;2024-02-26T03:23:43;3.87;;;3.57;;
27303;SDS011;14791;52.392;13.092;2024-02-26T03:26:12;3.37;;;3.07;;
27303;SDS011;14791;52.392;13.092;2024-02-26T03:28:41;3.30;;;3.00;;
27303;SDS011;14791;52.392;13.092;2024-02-26T03:31:10;3.57;;;3.47;;
27303;SDS011;14791;52.392;13.092;2024-02-26T03:33:39;4.20;;;3.90;;
27303;SDS011;14791;52.392;13.092;2024-02-26T03:36:08;4.10;;;3.90;;
27303;SDS011;14791;52.392;13.092;2024-02-26T03:38:37;4.17;;;3.97;;
27303;SDS011;14791;52.392;13.092;2024-02-26T03:41:06;3.63;;;3.43;;
27303;SDS011;14791;52.392;13.092;2024-02-26T03:43:35;4.57;;;3.90;;
27303;SDS011;14791;52.392;13.092;2024-02-26T03:46:07;6.27;;;4.20;;
27303;SDS011;14791;52.392;13.092;2024-02-26T03:48:41;3.80;;;3.57;;
27303;SDS011;14791;52.392;13.092;2024-02-26T03:51:10;4.37;;;4.07;;
27303;SDS011;14791;52.392;13.092;2024-02-26T03:53:38;3.80;;;3.60;;
27303;SDS011;14791;52.392;13.092;2024-02-26T03:56:07;3.93;;;3.60;;
27303;SDS011;14791;52.392;13.092;2024-02-26T03:58:36;3.53;;;3.37;;
27303;SDS011;14791;52.392;13.092;2024-02-26T04:01:08;3.57;;;3.40;;
27303;SDS011;14791;52.392;13.092;2024-02-26T04:03:37;4.13;;;3.73;;
27303;SDS011;14791;52.392;13.092;2024-02-26T04:06:08;3.93;;;3.73;;
27303;SDS011;14791;52.392;13.092;2024-02-26T04:08:37;3.67;;;3.57;;
27303;SDS011;14791;52.392;13.092;2024-02-26T04:11:06;4.30;;;4.00;;
27303;SDS011;14791;52.392;13.092;2024-02-26T04:13:35;3.80;;;3.60;;
27303;SDS011;14791;52.392;13.092;2024-02-26T04:16:07;4.13;;;3.83;;
27303;SDS011;14791;52.392;13.092;2024-02-26T04:18:36;3.13;;;3.00;;
27303;SDS011;14791;52.392;13.092;2024-02-26T04:21:05;3.57;;;3.37;;
27303;SDS011;14791;52.392;13.092;2024-02-26T04:23:34;3.60;;;3.40;;
27303;SDS011;14791;52.392;13.092;2024-02-26T04:26:03;3.97;;;3.77;;
27303;SDS011;14791;52.392;13.092;2024-02-26T04:28:33;3.97;;;3.77;;
27303;SDS011;14791;52.392;13.092;2024-02-26T04:31:03;4.57;;;4.37;;
27303;SDS011;14791;52.392;13.092;2024-02-26T04:33:33;4.40;;;4.20;;
27303;SDS011;14791;52.392;13.092;2024-02-26T04:36:02;4.43;;;4.13;;
27303;SDS011;14791;52.392;13.092;2024-02-26T04:38:32;4.90;;;4.40;;
27303;SDS011;14791;52.392;13.092;2024-02-26T04:41:01;3.93;;;3.63;;
27303;SDS011;14791;52.392;13.092;2024-02-26T04:43:30;3.40;;;3.30;;
27303;SDS011;14791;52.392;13.092;2024-02-26T04:45:58;4.20;;;3.80;;
27303;SDS011;14791;52.392;13.092;2024-02-26T04:48:27;4.80;;;4.27;;
27303;SDS011;14791;52.392;13.092;2024-02-26T04:50:56;3.37;;;3.23;;
27303;SDS011;14791;52.392;13.092;2024-02-26T04:53:25;4.43;;;4.13;;
27303;SDS011;14791;52.392;13.092;2024-02-26T04:55:54;3.83;;;3.70;;
27303;SDS011;14791;52.392;13.092;2024-02-26T04:58:23;4.20;;;4.00;;
27303;SDS011;14791;52.392;13.092;2024-02-26T05:00:52;4.10;;;3.80;;
27303;SDS011;14791;52.392;13.092;2024-02-26T05:03:20;4.10;;;3.90;;
27303;SDS011;14791;52.392;13.092;2024-02-26T05:05:50;3.83;;;3.50;;
27303;SDS011;14791;52.392;13.092;2024-02-26T05:08:19;5.33;;;3.90;;
27303;SDS011;14791;52.392;13.092;2024-02-26T05:10:47;4.53;;;4.00;;
27303;SDS011;14791;52.392;13.092;2024-02-26T05:13:16;3.50;;;3.40;;
27303;SDS011;14791;52.392;13.092;2024-02-26T05:15:45;3.57;;;3.27;;
27303;SDS011;14791;52.392;13.092;2024-02-26T05:18:16;3.40;;;3.10;;
27303;SDS011;14791;52.392;13.092;2024-02-26T05:20:45;3.83;;;3.53;;
27303;SDS011;14791;52.392;13.092;2024-02-26T05:23:13;3.63;;;3.47;;
27303;SDS011;14791;52.392;13.092;2024-02-26T05:25:42;4.07;;;3.77;;
27303;SDS011;14791;52.392;13.092;2024-02-26T05:28:13;3.17;;;2.97;;
27303;SDS011;14791;52.392;13.092;2024-02-26T05:30:43;3.60;;;3.50;;
27303;SDS011;14791;52.392;13.092;2024-02-26T05:33:12;3.87;;;3.50;;
27303;SDS011;14791;52.392;13.092;2024-02-26T05:35:41;3.80;;;3.70;;
27303;SDS011;14791;52.392;13.092;2024-02-26T05:38:10;3.67;;;3.47;;
27303;SDS011;14791;52.392;13.092;2024-02-26T05:40:39;4.37;;;4.13;;
27303;SDS011;14791;52.392;13.092;2024-02-26T05:43:08;3.50;;;3.30;;
27303;SDS011;14791;52.392;13.092;2024-02-26T05:45:37;4.17;;;3.77;;
27303;SDS011;14791;52.392;13.092;2024-02-26T05:48:06;4.00;;;3.80;;
27303;SDS011;14791;52.392;13.092;2024-02-26T05:50:35;4.23;;;3.97;;
27303;SDS011;14791;52.392;13.092;2024-02-26T05:53:04;3.77;;;3.57;;
27303;SDS011;14791;52.392;13.092;2024-02-26T05:55:33;4.73;;;4.33;;
27303;SDS011;14791;52.392;13.092;2024-02-26T05:58:02;7.07;;;4.33;;
27303;SDS011;14791;52.392;13.092;2024-02-26T06:00:31;5.57;;;4.10;;
27303;SDS011;14791;52.392;13.092;2024-02-26T06:03:00;4.20;;;3.93;;
27303;SDS011;14791;52.392;13.092;2024-02-26T06:05:29;4.40;;;4.07;;
27303;SDS011;14791;52.392;13.092;2024-02-26T06:07:58;4.90;;;3.97;;
27303;SDS011;14791;52.392;13.092;2024-02-26T06:10:27;5.83;;;5.43;;
27303;SDS011;14791;52.392;13.092;2024-02-26T06:12:56;5.37;;;4.97;;
27303;SDS011;14791;52.392;13.092;2024-02-26T06:15:25;5.60;;;4.50;;
27303;SDS011;14791;52.392;13.092;2024-02-26T06:17:54;4.97;;;4.67;;
27303;SDS011;14791;52.392;13.092;2024-02-26T06:20:23;6.47;;;5.33;;
27303;SDS011;14791;52.392;13.092;2024-02-26T06:22:52;5.07;;;4.70;;
27303;SDS011;14791;52.392;13.092;2024-02-26T06:25:21;4.90;;;4.47;;
27303;SDS011;14791;52.392;13.092;2024-02-26T06:27:50;5.20;;;4.70;;
27303;SDS011;14791;52.392;13.092;2024-02-26T06:30:19;4.50;;;4.30;;
27303;SDS011;14791;52.392;13.092;2024-02-26T06:32:48;4.50;;;4.23;;
27303;SDS011;14791;52.392;13.092;2024-02-26T06:35:17;4.07;;;3.80;;
27303;SDS011;14791;52.392;13.092;2024-02-26T06:37:45;4.93;;;4.70;;
27303;SDS011;14791;52.392;13.092;2024-02-26T06:40:16;4.67;;;4.47;;
27303;SDS011;14791;52.392;13.092;2024-02-26T06:42:45;4.47;;;4.27;;
27303;SDS011;14791;52.392;13.092;2024-02-26T06:45:14;8.17;;;4.97;;
27303;SDS011;14791;52.392;13.092;2024-02-26T06:47:43;4.77;;;4.53;;
27303;SDS011;14791;52.392;13.092;2024-02-26T06:50:12;5.07;;;4.53;;
27303;SDS011;14791;52.392;13.092;2024-02-26T06:52:42;5.00;;;4.70;;
27303;SDS011;14791;52.392;13.092;2024-02-26T06:55:13;5.80;;;5.10;;
27303;SDS011;14791;52.392;13.092;2024-02-26T06:57:42;4.33;;;4.13;;
27303;SDS011;14791;52.392;13.092;2024-02-26T07:00:12;4.70;;;4.33;;
27303;SDS011;14791;52.392;13.092;2024-02-26T07:02:43;5.30;;;5.00;;
27303;SDS011;14791;52.392;13.092;2024-02-26T07:05:12;5.37;;;4.97;;
27303;SDS011;14791;52.392;13.092;2024-02-26T07:07:42;5.00;;;4.53;;
27303;SDS011;14791;52.392;13.092;2024-02-26T07:10:11;5.30;;;4.90;;
27303;SDS011;14791;52.392;13.092;2024-02-26T07:12:40;5.67;;;5.27;;
27303;SDS011;14791;52.392;13.092;2024-02-26T07:15:09;6.83;;;6.23;;
27303;SDS011;14791;52.392;13.092;2024-02-26T07:17:39;5.57;;;5.17;;
27303;SDS011;14791;52.392;13.092;2024-02-26T07:20:13;5.63;;;5.30;;
27303;SDS011;14791;52.392;13.092;2024-02-26T07:22:42;5.83;;;5.13;;
27303;SDS011;14791;52.392;13.092;2024-02-26T07:25:11;6.13;;;5.53;;
27303;SDS011;14791;52.392;13.092;2024-02-26T07:27:40;4.53;;;4.33;;
27303;SDS011;14791;52.392;13.092;2024-02-26T07:30:09;5.57;;;5.10;;
27303;SDS011;14791;52.392;13.092;2024-02-26T07:32:39;5.97;;;5.57;;
27303;SDS011;14791;52.392;13.092;2024-02-26T07:35:07;5.93;;;5.70;;
27303;SDS011;14791;52.392;13.092;2024-02-26T07:37:37;6.90;;;6.50;;
27303;SDS011;14791;52.392;13.092;2024-02-26T07:40:06;7.70;;;7.10;;
27303;SDS011;14791;52.392;13.092;2024-02-26T07:42:35;7.13;;;6.53;;
27303;SDS011;14791;52.392;13.092;2024-02-26T07:45:05;5.87;;;5.57;;
27303;SDS011;14791;52.392;13.092;2024-02-26T07:47:34;6.10;;;5.73;;
27303;SDS011;14791;52.392;13.092;2024-02-26T07:50:05;6.03;;;5.63;;
27303;SDS011;14791;52.392;13.092;2024-02-26T07:52:35;6.87;;;6.57;;
27303;SDS011;14791;52.392;13.092;2024-02-26T07:55:04;6.73;;;6.33;;
27303;SDS011;14791;52.392;13.092;2024-02-26T07:57:33;7.33;;;6.83;;
27303;SDS011;14791;52.392;13.092;2024-02-26T08:00:03;7.47;;;7.00;;
27303;SDS011;14791;52.392;13.092;2024-02-26T08:02:34;7.87;;;7.33;;
27303;SDS011;14791;52.392;13.092;2024-02-26T08:05:04;7.57;;;7.07;;
27303;SDS011;14791;52.392;13.092;2024-02-26T08:07:33;7.27;;;6.53;;
27303;SDS011;14791;52.392;13.092;2024-02-26T08:10:02;6.07;;;5.77;;
27303;SDS011;14791;52.392;13.092;2024-02-26T08:12:31;8.63;;;7.93;;
27303;SDS011;14791;52.392;13.092;2024-02-26T08:15:00;8.70;;;7.97;;
27303;SDS011;14791;52.392;13.092;2024-02-26T08:17:29;8.13;;;7.47;;
27303;SDS011;14791;52.392;13.092;2024-02-26T08:20:00;6.10;;;5.70;;
27303;SDS011;14791;52.392;13.092;2024-02-26T08:22:29;7.50;;;6.80;;
27303;SDS011;14791;52.392;13.092;2024-02-26T08:25:00;6.70;;;6.23;;
27303;SDS011;14791;52.392;13.092;2024-02-26T08:27:30;8.07;;;7.37;;
27303;SDS011;14791;52.392;13.092;2024-02-26T08:29:59;8.07;;;7.57;;
27303;SDS011;14791;52.392;13.092;2024-02-26T08:32:28;7.13;;;6.63;;
27303;SDS011;14791;52.392;13.092;2024-02-26T08:34:57;6.90;;;6.40;;
27303;SDS011;14791;52.392;13.092;2024-02-26T08:37:26;7.80;;;7.10;;
27303;SDS011;14791;52.392;13.092;2024-02-26T08:39:55;7.50;;;6.97;;
27303;SDS011;14791;52.392;13.092;2024-02-26T08:42:24;6.90;;;6.50;;
27303;SDS011;14791;52.392;13.092;2024-02-26T08:44:53;8.60;;;8.00;;
27303;SDS011;14791;52.392;13.092;2024-02-26T08:47:22;8.40;;;7.90;;
27303;SDS011;14791;52.392;13.092;2024-02-26T08:49:51;8.13;;;7.63;;
27303;SDS011;14791;52.392;13.092;2024-02-26T08:52:20;8.97;;;8.20;;
27303;SDS011;14791;52.392;13.092;2024-02-26T08:54:51;8.13;;;7.53;;
27303;SDS011;14791;52.392;13.092;2024-02-26T08:57:20;7.27;;;6.77;;
27303;SDS011;14791;52.392;13.092;2024-02-26T08:59:49;8.37;;;7.67;;
27303;SDS011;14791;52.392;13.092;2024-02-26T09:02:18;8.03;;;7.27;;
27303;SDS011;14791;52.392;13.092;2024-02-26T09:04:47;6.50;;;6.00;;
27303;SDS011;14791;52.392;13.092;2024-02-26T09:07:18;7.10;;;6.70;;
27303;SDS011;14791;52.392;13.092;2024-02-26T09:09:46;9.00;;;7.93;;
27303;SDS011;14791;52.392;13.092;2024-02-26T09:12:16;9.73;;;9.10;;
27303;SDS011;14791;52.392;13.092;2024-02-26T09:14:44;8.97;;;7.97;;
27303;SDS011;14791;52.392;13.092;2024-02-26T09:17:13;8.00;;;7.30;;
27303;SDS011;14791;52.392;13.092;2024-02-26T09:19:42;9.07;;;8.20;;
27303;SDS011;14791;52.392;13.092;2024-02-26T09:22:11;7.23;;;6.83;;
27303;SDS011;14791;52.392;13.092;2024-02-26T09:24:40;7.93;;;7.17;;
27303;SDS011;14791;52.392;13.092;2024-02-26T09:27:09;7.80;;;7.10;;
27303;SDS011;14791;52.392;13.092;2024-02-26T09:29:38;8.53;;;7.53;;
27303;SDS011;14791;52.392;13.092;2024-02-26T09:32:06;6.07;;;5.77;;
27303;SDS011;14791;52.392;13.092;2024-02-26T09:34:35;9.83;;;7.97;;
27303;SDS011;14791;52.392;13.092;2024-02-26T09:37:04;6.87;;;6.30;;
27303;SDS011;14791;52.392;13.092;2024-02-26T09:39:33;8.30;;;7.33;;
27303;SDS011;14791;52.392;13.092;2024-02-26T09:42:03;6.43;;;6.03;;
27303;SDS011;14791;52.392;13.092;2024-02-26T09:44:34;6.97;;;6.57;;
27303;SDS011;14791;52.392;13.092;2024-02-26T09:47:06;7.50;;;6.93;;
27303;SDS011;14791;52.392;13.092;2024-02-26T09:49:38;7.57;;;6.93;;
27303;SDS011;14791;52.392;13.092;2024-02-26T09:52:07;9.13;;;7.43;;
27303;SDS011;14791;52.392;13.092;2024-02-26T09:54:38;7.57;;;7.10;;
27303;SDS011;14791;52.392;13.092;2024-02-26T09:57:09;8.07;;;7.27;;
27303;SDS011;14791;52.392;13.092;2024-02-26T10:02:14;6.67;;;5.87;;
27303;SDS011;14791;52.392;13.092;2024-02-26T10:04:44;6.50;;;6.10;;
27303;SDS011;14791;52.392;13.092;2024-02-26T10:07:16;8.43;;;7.57;;
27303;SDS011;14791;52.392;13.092;2024-02-26T10:09:45;6.83;;;6.23;;
27303;SDS011;14791;52.392;13.092;2024-02-26T10:12:14;6.70;;;6.20;;
27303;SDS011;14791;52.392;13.092;2024-02-26T10:14:44;7.03;;;6.33;;
27303;SDS011;14791;52.392;13.092;2024-02-26T10:17:13;6.27;;;5.93;;
27303;SDS011;14791;52.392;13.092;2024-02-26T10:19:43;6.50;;;6.00;;
27303;SDS011;14791;52.392;13.092;2024-02-26T10:22:12;6.23;;;5.80;;
27303;SDS011;14791;52.392;13.092;2024-02-26T10:24:41;8.60;;;6.07;;
27303;SDS011;14791;52.392;13.092;2024-02-26T10:27:10;5.87;;;5.40;;
27303;SDS011;14791;52.392;13.092;2024-02-26T10:29:39;8.33;;;6.27;;
27303;SDS011;14791;52.392;13.092;2024-02-26T10:32:10;6.17;;;5.57;;
27303;SDS011;14791;52.392;13.092;2024-02-26T10:34:40;6.90;;;5.60;;
27303;SDS011;14791;52.392;13.092;2024-02-26T10:37:09;5.67;;;5.22;;
27303;SDS011;14791;52.392;13.092;2024-02-26T10:39:38;6.00;;;5.40;;
27303;SDS011;14791;52.392;13.092;2024-02-26T10:42:12;5.30;;;4.83;;
27303;SDS011;14791;52.392;13.092;2024-02-26T10:44:41;5.78;;;4.95;;
27303;SDS011;14791;52.392;13.092;2024-02-26T10:47:12;5.57;;;5.13;;
27303;SDS011;14791;52.392;13.092;2024-02-26T10:49:45;5.62;;;5.12;;
27303;SDS011;14791;52.392;13.092;2024-02-26T10:52:18;6.10;;;5.33;;
27303;SDS011;14791;52.392;13.092;2024-02-26T10:54:49;5.25;;;4.95;;
27303;SDS011;14791;52.392;13.092;2024-02-26T10:57:20;6.33;;;5.33;;
27303;SDS011;14791;52.392;13.092;2024-02-26T10:59:51;4.78;;;4.37;;
27303;SDS011;14791;52.392;13.092;2024-02-26T11:02:21;5.40;;;5.00;;
27303;SDS011;14791;52.392;13.092;2024-02-26T11:04:50;4.97;;;4.70;;
27303;SDS011;14791;52.392;13.092;2024-02-26T11:07:20;5.03;;;4.62;;
27303;SDS011;14791;52.392;13.092;2024-02-26T11:09:50;5.10;;;4.72;;
27303;SDS011;14791;52.392;13.092;2024-02-26T11:12:20;4.72;;;4.42;;
27303;SDS011;14791;52.392;13.092;2024-02-26T11:14:50;4.70;;;4.40;;
27303;SDS011;14791;52.392;13.092;2024-02-26T11:17:21;4.08;;;3.90;;
27303;SDS011;14791;52.392;13.092;2024-02-26T11:19:53;3.52;;;3.42;;
27303;SDS011;14791;52.392;13.092;2024-02-26T11:22:25;3.47;;;3.10;;
27303;SDS011;14791;52.392;13.092;2024-02-26T11:24:56;3.83;;;3.72;;
27303;SDS011;14791;52.392;13.092;2024-02-26T11:27:28;4.65;;;4.35;;
27303;SDS011;14791;52.392;13.092;2024-02-26T11:29:59;4.53;;;4.22;;
27303;SDS011;14791;52.392;13.092;2024-02-26T11:32:32;5.60;;;4.60;;
27303;SDS011;14791;52.392;13.092;2024-02-26T11:35:02;3.95;;;3.75;;
27303;SDS011;14791;52.392;13.092;2024-02-26T11:37:34;4.22;;;3.77;;
27303;SDS011;14791;52.392;13.092;2024-02-26T11:40:04;2.87;;;2.77;;
27303;SDS011;14791;52.392;13.092;2024-02-26T11:42:35;3.92;;;3.67;;
27303;SDS011;14791;52.392;13.092;2024-02-26T11:45:26;4.22;;;3.80;;
27303;SDS011;14791;52.392;13.092;2024-02-26T11:47:58;4.10;;;3.72;;
27303;SDS011;14791;52.392;13.092;2024-02-26T11:50:35;3.90;;;3.62;;
27303;SDS011;14791;52.392;13.092;2024-02-26T11:53:21;3.72;;;3.60;;
27303;SDS011;14791;52.392;13.092;2024-02-26T11:59:04;3.15;;;3.05;;
27303;SDS011;14791;52.392;13.092;2024-02-26T12:01:37;3.42;;;3.20;;
27303;SDS011;14791;52.392;13.092;2024-02-26T12:04:13;3.67;;;3.37;;
27303;SDS011;14791;52.392;13.092;2024-02-26T12:06:47;3.83;;;3.62;;
27303;SDS011;14791;52.392;13.092;2024-02-26T12:09:47;4.00;;;3.70;;
27303;SDS011;14791;52.392;13.092;2024-02-26T12:12:09;4.50;;;3.98;;
27303;SDS011;14791;52.392;13.092;2024-02-26T12:14:40;3.37;;;3.27;;
27303;SDS011;14791;52.392;13.092;2024-02-26T12:17:23;3.40;;;3.30;;
27303;SDS011;14791;52.392;13.092;2024-02-26T12:19:54;5.47;;;3.65;;
27303;SDS011;14791;52.392;13.092;2024-02-26T12:22:25;3.02;;;2.92;;
27303;SDS011;14791;52.392;13.092;2024-02-26T12:24:59;3.50;;;3.37;;
27303;SDS011;14791;52.392;13.092;2024-02-26T12:27:29;3.58;;;3.37;;
27303;SDS011;14791;52.392;13.092;2024-02-26T12:29:58;3.98;;;3.67;;
27303;SDS011;14791;52.392;13.092;2024-02-26T12:32:27;3.10;;;3.00;;
27303;SDS011;14791;52.392;13.092;2024-02-26T12:34:56;3.33;;;3.22;;
27303;SDS011;14791;52.392;13.092;2024-02-26T12:37:27;3.60;;;3.50;;
27303;SDS011;14791;52.392;13.092;2024-02-26T12:39:56;3.72;;;3.42;;
27303;SDS011;14791;52.392;13.092;2024-02-26T12:42:25;3.22;;;3.12;;
27303;SDS011;14791;52.392;13.092;2024-02-26T12:44:54;3.92;;;3.40;;
27303;SDS011;14791;52.392;13.092;2024-02-26T12:47:23;3.22;;;3.12;;
27303;SDS011;14791;52.392;13.092;2024-02-26T12:49:52;4.37;;;3.98;;
27303;SDS011;14791;52.392;13.092;2024-02-26T12:52:21;3.60;;;3.50;;
27303;SDS011;14791;52.392;13.092;2024-02-26T12:54:51;3.35;;;3.15;;
27303;SDS011;14791;52.392;13.092;2024-02-26T12:57:20;3.62;;;3.40;;
27303;SDS011;14791;52.392;13.092;2024-02-26T12:59:49;3.15;;;2.95;;
27303;SDS011;14791;52.392;13.092;2024-02-26T13:02:18;3.30;;;3.20;;
27303;SDS011;14791;52.392;13.092;2024-02-26T13:04:47;3.20;;;3.10;;
27303;SDS011;14791;52.392;13.092;2024-02-26T13:07:16;3.30;;;3.20;;
27303;SDS011;14791;52.392;13.092;2024-02-26T13:09:46;6.05;;;3.70;;
27303;SDS011;14791;52.392;13.092;2024-02-26T13:12:15;3.47;;;3.33;;
27303;SDS011;14791;52.392;13.092;2024-02-26T13:14:44;4.22;;;4.03;;
27303;SDS011;14791;52.392;13.092;2024-02-26T13:17:13;4.42;;;4.20;;
27303;SDS011;14791;52.392;13.092;2024-02-26T13:19:50;5.17;;;4.58;;
27303;SDS011;14791;52.392;13.092;2024-02-26T13:22:25;4.85;;;4.55;;
27303;SDS011;14791;52.392;13.092;2024-02-26T13:24:53;4.50;;;4.40;;
27303;SDS011;14791;52.392;13.092;2024-02-26T13:27:23;5.53;;;5.12;;
27303;SDS011;14791;52.392;13.092;2024-02-26T13:32:37;4.70;;;4.40;;
27303;SDS011;14791;52.392;13.092;2024-02-26T13:35:08;5.35;;;4.92;;
27303;SDS011;14791;52.392;13.092;2024-02-26T13:37:39;4.45;;;4.25;;
27303;SDS011;14791;52.392;13.092;2024-02-26T13:40:09;5.05;;;4.53;;
27303;SDS011;14791;52.392;13.092;2024-02-26T13:42:39;5.03;;;4.72;;
27303;SDS011;14791;52.392;13.092;2024-02-26T13:45:08;5.22;;;4.72;;
27303;SDS011;14791;52.392;13.092;2024-02-26T13:47:37;5.33;;;4.83;;
27303;SDS011;14791;52.392;13.092;2024-02-26T13:50:08;5.83;;;5.33;;
27303;SDS011;14791;52.392;13.092;2024-02-26T13:52:37;5.40;;;5.20;;
27303;SDS011;14791;52.392;13.092;2024-02-26T13:55:06;5.12;;;4.92;;
27303;SDS011;14791;52.392;13.092;2024-02-26T13:57:35;7.03;;;6.33;;
27303;SDS011;14791;52.392;13.092;2024-02-26T14:00:05;5.20;;;5.00;;
27303;SDS011;14791;52.392;13.092;2024-02-26T14:02:38;4.30;;;4.10;;
27303;SDS011;14791;52.392;13.092;2024-02-26T14:05:07;4.92;;;4.50;;
27303;SDS011;14791;52.392;13.092;2024-02-26T14:07:35;4.08;;;3.87;;
27303;SDS011;14791;52.392;13.092;2024-02-26T14:10:05;4.10;;;3.90;;
27303;SDS011;14791;52.392;13.092;2024-02-26T14:12:34;3.62;;;3.40;;
27303;SDS011;14791;52.392;13.092;2024-02-26T14:15:03;4.33;;;3.90;;
27303;SDS011;14791;52.392;13.092;2024-02-26T14:17:34;4.00;;;3.90;;
27303;SDS011;14791;52.392;13.092;2024-02-26T14:20:03;4.15;;;3.27;;
27303;SDS011;14791;52.392;13.092;2024-02-26T14:22:34;3.08;;;2.98;;
27303;SDS011;14791;52.392;13.092;2024-02-26T14:25:04;3.20;;;3.10;;
27303;SDS011;14791;52.392;13.092;2024-02-26T14:27:34;2.83;;;2.72;;
27303;SDS011;14791;52.392;13.092;2024-02-26T14:30:04;3.10;;;3.00;;
27303;SDS011;14791;52.392;13.092;2024-02-26T14:32:34;3.02;;;2.77;;
27303;SDS011;14791;52.392;13.092;2024-02-26T14:35:11;3.10;;;2.98;;
27303;SDS011;14791;52.392;13.092;2024-02-26T14:37:36;2.98;;;2.83;;
27303;SDS011;14791;52.392;13.092;2024-02-26T14:40:07;3.10;;;2.90;;
27303;SDS011;14791;52.392;13.092;2024-02-26T14:42:36;2.83;;;2.72;;
27303;SDS011;14791;52.392;13.092;2024-02-26T14:45:05;4.30;;;2.90;;
27303;SDS011;14791;52.392;13.092;2024-02-26T14:47:36;2.50;;;2.40;;
27303;SDS011;14791;52.392;13.092;2024-02-26T14:50:05;2.52;;;2.42;;
27303;SDS011;14791;52.392;13.092;2024-02-26T14:52:35;2.08;;;2.05;;
27303;SDS011;14791;52.392;13.092;2024-02-26T14:55:04;2.30;;;2.10;;
27303;SDS011;14791;52.392;13.092;2024-02-26T14:57:33;2.47;;;2.20;;